Airfield :







YOU CAN JOIN US ON...

 
LOGIN :

Register | Disclaimer

   EN    FR    IT 

 









Legend :    VFR   Marginal VFR   IFR   Intensive IFR   Very Intensive IFR
Visi :
Ceiling :
>= 8 km
>= 3000ft
5 to 8 km
1000 to 3000 ft
1500m to 5 km
500 to 1000 ft
800 to 1500m
200 to 500 ft
< 800m
< 200 ft
Symbols :   Thunderstorms  Fog  Heavy snow  Heavy precipitations  Wind > 20 kt






- Airport Elevation : 522 ft
- IATA code : YBG


CYBG - CFB Bagotville

CURRENT METAR :
  • 120530Z 28024G31KT 4SM -SHSN BLSN BKN020 BKN040 M10/M15 A3007 RMK SC5SC2 VIS VRB 3-5 PRESRR SLP198

EXPIRED METARs :
  • 120500Z 27018KT 10SM DRSN BKN020 BKN040 M09/M14 A3004 RMK SC5SC2 SLP187
  • 120400Z 26015G20KT 8SM -SHSN BKN020 OVC040 M08/M12 A3001 RMK SC6SC2 SLP176
  • 120312Z 26003KT 2SM -SHSN OVC020 M10/M13 A2998 RMK SN3SC5 VIS VRB 1-3 SLP167
  • 120300Z 25004KT 10SM -SHSN BKN020 OVC040 M11/M14 A2998 RMK SC5SC3 SLP167

TAF TAF CYBG
Valid from the 12 at 06:00 until the 13 at 06:00 UTC


120530Z 1206/1306 28020G35KT 2SM -SHSN BLSN OVC020
TEMPO 1206/1209 P6SM NSW SCT020 BKN040
FM120900 28015G25KT P6SM BKN030
TEMPO 1209/1211 4SM -SHSN BLSN
FM121100 28012KT P6SM SCT040
BECMG 1214/1216 28010G20KT
BECMG 1219/1221 VRB03KT
FM130100 VRB03KT P6SM SCT050 BKN180
FM130500 10005KT P6SM BKN030 OVC070 RMK NXT FCST BY 121200Z



MET'MAP, your aeronautical weather chart ! - Copyright ORBIFLY December 2007 - Disclaimer

ORBIFLY MET'MAP TEAM :

Programming & Development : Alexandra Zaïnal
Concept & original design : Baudouin d'Aumeries
Assistance for programming : Marc-Olivier Méhu
Technical & hardware support : Manuel Goepfert

Contact : metmap@orbifly.com




SOURCES & CREDITS :

   NOAA